createdAt,value
2023-01-19T00:00:53.995Z,62.84
2023-01-19T00:01:53.958Z,61.07
2023-01-19T00:02:54.049Z,64.78
2023-01-19T00:03:53.985Z,56.72
2023-01-19T00:04:53.951Z,57.52
2023-01-19T00:05:54.009Z,62.04
2023-01-19T00:06:53.939Z,62.20
2023-01-19T00:07:53.938Z,60.26
2023-01-19T00:08:53.927Z,62.04
2023-01-19T00:09:53.917Z,60.10
2023-01-19T00:10:53.927Z,57.85
2023-01-19T00:11:53.918Z,57.20
2023-01-19T00:12:53.909Z,59.62
2023-01-19T00:13:53.892Z,60.26
2023-01-19T00:14:53.890Z,60.26
2023-01-19T00:15:53.924Z,63.65
2023-01-19T00:16:53.876Z,60.42
2023-01-19T00:17:53.868Z,58.97
2023-01-19T00:18:53.878Z,58.97
2023-01-19T00:19:53.862Z,61.87
2023-01-19T00:20:53.872Z,55.27
2023-01-19T00:21:53.850Z,62.52
2023-01-19T00:22:53.849Z,59.62
2023-01-19T00:23:53.834Z,61.71
2023-01-19T00:24:53.831Z,60.26
2023-01-19T00:25:53.841Z,60.42
2023-01-19T00:26:53.818Z,61.87
2023-01-19T00:27:53.806Z,60.10
2023-01-19T00:28:53.799Z,61.87
2023-01-19T00:29:53.788Z,59.62
2023-01-19T00:30:53.795Z,61.07
2023-01-19T00:31:53.807Z,64.13
2023-01-19T00:32:53.773Z,61.07
2023-01-19T00:33:53.777Z,57.04
2023-01-19T00:34:53.759Z,59.62
2023-01-19T00:35:53.751Z,54.14
2023-01-19T00:36:53.758Z,61.87
2023-01-19T00:37:53.733Z,59.94
2023-01-19T00:38:53.727Z,58.81
2023-01-19T00:39:53.725Z,60.75
2023-01-19T00:40:53.724Z,61.71
2023-01-19T00:41:53.728Z,58.81
2023-01-19T00:42:53.714Z,57.52
2023-01-19T00:43:53.698Z,54.30
2023-01-19T00:44:53.691Z,56.56
2023-01-19T00:45:53.745Z,57.85
2023-01-19T00:46:53.707Z,61.87
2023-01-19T00:47:53.673Z,60.42
2023-01-19T00:48:53.657Z,58.97
2023-01-19T00:49:53.666Z,60.59
2023-01-19T00:50:53.654Z,54.79
2023-01-19T00:51:53.660Z,57.20
2023-01-19T00:52:53.653Z,53.33
2023-01-19T00:53:53.613Z,58.33
2023-01-19T00:54:53.631Z,58.01
2023-01-19T00:55:53.614Z,56.56
2023-01-19T00:56:53.606Z,57.85
2023-01-19T00:57:53.619Z,55.27
2023-01-19T00:58:53.597Z,60.91
2023-01-19T00:59:53.578Z,57.52
2023-01-19T01:00:53.697Z,60.26
2023-01-19T01:01:53.900Z,62.36
2023-01-19T01:02:53.712Z,61.39
2023-01-19T01:03:53.566Z,61.23
2023-01-19T01:04:53.562Z,60.26
2023-01-19T01:05:53.559Z,61.23
2023-01-19T01:06:53.533Z,61.23
2023-01-19T01:07:53.559Z,60.75
2023-01-19T01:08:53.534Z,62.52
2023-01-19T01:09:53.542Z,60.91
2023-01-19T01:10:53.522Z,58.17
2023-01-19T01:11:53.509Z,68.00
2023-01-19T01:12:57.313Z,58.49
2023-01-19T01:13:53.510Z,56.07
2023-01-19T01:14:53.495Z,61.39
2023-01-19T01:15:53.519Z,62.20
2023-01-19T01:16:53.584Z,61.87
2023-01-19T01:17:53.477Z,63.00
2023-01-19T01:18:53.489Z,60.42
2023-01-19T01:19:53.461Z,61.87
2023-01-19T01:20:55.331Z,63.49
2023-01-19T01:21:53.437Z,60.59
2023-01-19T01:22:53.445Z,59.94
2023-01-19T01:23:53.445Z,60.91
2023-01-19T01:24:53.420Z,61.39
2023-01-19T01:25:53.434Z,55.91
2023-01-19T01:26:53.410Z,61.07
2023-01-19T01:27:53.403Z,59.30
2023-01-19T01:28:53.409Z,60.91
2023-01-19T01:29:53.396Z,61.23
2023-01-19T01:30:53.380Z,56.72
2023-01-19T01:31:53.423Z,55.27
2023-01-19T01:32:53.368Z,62.68
2023-01-19T01:33:53.382Z,58.81
2023-01-19T01:34:53.351Z,56.40
2023-01-19T01:35:53.333Z,61.87
2023-01-19T01:36:53.341Z,62.20
2023-01-19T01:37:53.343Z,58.65
2023-01-19T01:38:53.332Z,61.55
2023-01-19T01:39:53.328Z,62.36
2023-01-19T01:40:53.334Z,60.42
2023-01-19T01:41:54.016Z,58.33
2023-01-19T01:42:53.297Z,54.14
2023-01-19T01:43:53.308Z,54.14
2023-01-19T01:44:53.291Z,61.23
2023-01-19T01:45:53.374Z,60.59
2023-01-19T01:46:53.276Z,60.59
2023-01-19T01:47:53.266Z,57.52
2023-01-19T01:48:53.282Z,62.20
2023-01-19T01:49:53.289Z,63.33
2023-01-19T01:50:53.251Z,60.59
2023-01-19T01:51:53.256Z,60.75
2023-01-19T01:53:03.853Z,59.78
2023-01-19T01:53:54.258Z,62.68
2023-01-19T01:54:53.239Z,61.07
2023-01-19T01:55:53.245Z,62.20
2023-01-19T01:56:53.218Z,57.52
2023-01-19T01:57:53.205Z,55.59
2023-01-19T01:58:53.194Z,53.50
2023-01-19T01:59:53.192Z,60.59
2023-01-19T02:00:54.399Z,63.49
2023-01-19T02:01:53.240Z,62.84
2023-01-19T02:02:53.223Z,59.46
2023-01-19T02:03:53.165Z,60.10
2023-01-19T02:04:53.170Z,56.72
2023-01-19T02:05:53.167Z,55.75
2023-01-19T02:06:53.169Z,61.07
2023-01-19T02:07:53.144Z,60.59
2023-01-19T02:08:53.137Z,61.39
2023-01-19T02:09:53.132Z,60.10
2023-01-19T02:10:53.125Z,64.94
2023-01-19T02:11:53.116Z,61.07
2023-01-19T02:12:53.113Z,62.68
2023-01-19T02:13:53.125Z,61.55
2023-01-19T02:14:53.094Z,56.72
2023-01-19T02:15:53.085Z,57.85
2023-01-19T02:16:53.119Z,60.10
2023-01-19T02:17:53.076Z,58.97
2023-01-19T02:18:53.069Z,53.33
2023-01-19T02:19:53.051Z,60.59
2023-01-19T02:20:53.048Z,59.14
2023-01-19T02:21:53.046Z,60.26
2023-01-19T02:22:53.045Z,63.16
2023-01-19T02:23:53.040Z,65.42
2023-01-19T02:24:53.020Z,54.95
2023-01-19T02:25:53.021Z,54.30
2023-01-19T02:26:53.014Z,61.07
2023-01-19T02:27:53.017Z,61.23
2023-01-19T02:28:53.001Z,56.88
2023-01-19T02:29:52.995Z,62.84
2023-01-19T02:30:53.027Z,60.91
2023-01-19T02:31:52.993Z,57.36
2023-01-19T02:32:52.981Z,59.46
2023-01-19T02:33:52.968Z,58.81
2023-01-19T02:34:52.956Z,62.52
2023-01-19T02:35:52.955Z,61.71
2023-01-19T02:36:52.975Z,56.88
2023-01-19T02:37:52.938Z,54.95
2023-01-19T02:38:52.945Z,60.59
2023-01-19T02:39:52.933Z,58.65
2023-01-19T02:40:52.926Z,59.62
2023-01-19T02:41:52.910Z,64.78
2023-01-19T02:42:52.925Z,59.30
2023-01-19T02:43:52.917Z,63.65
2023-01-19T02:44:52.891Z,61.71
2023-01-19T02:45:52.920Z,58.65
2023-01-19T02:46:52.876Z,57.52
2023-01-19T02:47:52.881Z,60.91
2023-01-19T02:48:52.890Z,59.94
2023-01-19T02:49:52.879Z,61.39
2023-01-19T02:50:52.852Z,57.20
2023-01-19T02:51:52.859Z,56.72
2023-01-19T02:52:52.841Z,56.40
2023-01-19T02:53:52.836Z,60.42
2023-01-19T02:54:52.841Z,61.23
2023-01-19T02:55:52.823Z,58.65
2023-01-19T02:56:52.821Z,56.40
2023-01-19T02:57:52.809Z,60.10
2023-01-19T02:58:52.809Z,60.26
2023-01-19T02:59:52.796Z,62.84
2023-01-19T03:00:52.848Z,60.91
2023-01-19T03:01:52.863Z,57.20
2023-01-19T03:02:52.829Z,61.87
2023-01-19T03:03:52.773Z,55.91
2023-01-19T03:04:52.772Z,64.29
2023-01-19T03:05:52.770Z,65.26
2023-01-19T03:06:52.757Z,59.62
2023-01-19T03:07:52.789Z,61.55
2023-01-19T03:08:52.776Z,58.81
2023-01-19T03:09:52.745Z,61.55
2023-01-19T03:10:52.749Z,64.61
2023-01-19T03:11:52.725Z,64.29
2023-01-19T03:12:52.721Z,60.10
2023-01-19T03:13:52.726Z,62.84
2023-01-19T03:14:52.685Z,60.91
2023-01-19T03:15:52.932Z,59.62
2023-01-19T03:16:52.739Z,59.30
2023-01-19T03:17:52.686Z,62.52
2023-01-19T03:18:52.672Z,62.36
2023-01-19T03:19:52.658Z,62.68
2023-01-19T03:20:52.666Z,57.36
2023-01-19T03:21:52.651Z,59.78
2023-01-19T03:22:52.638Z,65.58
2023-01-19T03:23:52.640Z,59.78
2023-01-19T03:24:52.642Z,65.90
2023-01-19T03:25:52.624Z,68.00
2023-01-19T03:26:52.620Z,58.33
2023-01-19T03:27:52.611Z,62.20
2023-01-19T03:28:52.611Z,62.20
2023-01-19T03:29:52.598Z,61.55
2023-01-19T03:30:52.602Z,57.52
2023-01-19T03:31:52.591Z,57.52
2023-01-19T03:32:52.580Z,62.36
2023-01-19T03:33:52.572Z,58.65
2023-01-19T03:34:52.579Z,62.68
2023-01-19T03:35:52.546Z,63.33
2023-01-19T03:36:52.559Z,66.39
2023-01-19T03:37:52.539Z,65.74
2023-01-19T03:38:52.529Z,62.20
2023-01-19T03:39:52.548Z,62.52
2023-01-19T03:40:52.522Z,58.65
2023-01-19T03:41:52.507Z,61.71
2023-01-19T03:42:52.522Z,62.68
2023-01-19T03:43:52.495Z,65.26
2023-01-19T03:44:52.496Z,60.10
2023-01-19T03:45:52.528Z,60.75
2023-01-19T03:46:52.480Z,62.04
2023-01-19T03:47:52.472Z,62.68
2023-01-19T03:48:52.463Z,63.16
2023-01-19T03:49:52.469Z,62.36
2023-01-19T03:50:52.452Z,65.58
2023-01-19T03:51:52.460Z,61.23
2023-01-19T03:52:52.542Z,62.68
2023-01-19T03:53:52.450Z,61.87
2023-01-19T03:54:52.414Z,62.68
2023-01-19T03:55:52.446Z,59.62
2023-01-19T03:56:52.459Z,60.75
2023-01-19T03:57:52.409Z,63.33
2023-01-19T03:58:52.400Z,65.74
2023-01-19T03:59:52.386Z,63.65
2023-01-19T04:00:52.402Z,64.29
2023-01-19T04:01:52.458Z,59.78
2023-01-19T04:02:52.450Z,61.07
2023-01-19T04:03:52.371Z,59.94
2023-01-19T04:04:52.358Z,61.71
2023-01-19T04:05:52.345Z,63.49
2023-01-19T04:06:52.351Z,62.68
2023-01-19T04:07:52.359Z,63.81
2023-01-19T04:08:52.344Z,64.45
2023-01-19T04:09:52.327Z,63.16
2023-01-19T04:10:52.333Z,61.87
2023-01-19T04:11:52.339Z,64.29
2023-01-19T04:12:52.331Z,62.52
2023-01-19T04:13:52.318Z,66.06
2023-01-19T04:14:52.287Z,63.65
2023-01-19T04:15:52.304Z,65.42
2023-01-19T04:16:52.278Z,66.55
2023-01-19T04:17:52.286Z,65.74
2023-01-19T04:18:52.262Z,63.49
2023-01-19T04:19:52.261Z,63.00
2023-01-19T04:20:52.246Z,64.78
2023-01-19T04:21:52.246Z,67.03
2023-01-19T04:22:52.224Z,65.42
2023-01-19T04:23:52.231Z,67.35
2023-01-19T04:24:52.215Z,64.61
2023-01-19T04:25:52.206Z,64.29
2023-01-19T04:26:52.205Z,66.23
2023-01-19T04:27:52.199Z,64.13
2023-01-19T04:28:52.188Z,68.48
2023-01-19T04:29:52.194Z,65.58
2023-01-19T04:30:52.251Z,66.55
2023-01-19T04:31:52.173Z,63.65
2023-01-19T04:32:52.165Z,65.90
2023-01-19T04:33:52.178Z,64.78
2023-01-19T04:34:52.151Z,65.90
2023-01-19T04:35:54.206Z,66.23
2023-01-19T04:36:53.142Z,64.45
2023-01-19T04:37:52.180Z,65.10
2023-01-19T04:38:52.126Z,66.06
2023-01-19T04:39:52.122Z,65.26
2023-01-19T04:40:52.111Z,68.32
2023-01-19T04:41:52.104Z,64.61
2023-01-19T04:42:52.106Z,64.61
2023-01-19T04:43:52.099Z,67.51
2023-01-19T04:44:52.099Z,65.26
2023-01-19T04:45:52.078Z,66.71
2023-01-19T04:46:52.072Z,66.71
2023-01-19T04:47:52.070Z,65.10
2023-01-19T04:48:52.059Z,64.45
2023-01-19T04:49:52.072Z,65.26
2023-01-19T04:50:52.043Z,65.26
2023-01-19T04:51:52.044Z,64.94
2023-01-19T04:52:52.040Z,67.19
2023-01-19T04:53:52.022Z,66.06
2023-01-19T04:54:52.018Z,64.29
2023-01-19T04:55:52.017Z,67.03
2023-01-19T04:56:51.999Z,63.81
2023-01-19T04:57:51.997Z,65.26
2023-01-19T04:58:51.997Z,64.78
2023-01-19T04:59:52.986Z,64.61
2023-01-19T05:00:52.017Z,63.65
2023-01-19T05:01:52.040Z,65.42
2023-01-19T05:02:52.003Z,64.13
2023-01-19T05:03:51.987Z,64.61
2023-01-19T05:04:51.963Z,65.58
2023-01-19T05:05:51.952Z,64.94
2023-01-19T05:06:51.949Z,65.42
2023-01-19T05:07:51.938Z,63.97
2023-01-19T05:08:51.932Z,65.10
2023-01-19T05:09:51.924Z,62.84
2023-01-19T05:10:51.968Z,65.42
2023-01-19T05:11:51.915Z,67.51
2023-01-19T05:12:51.897Z,68.16
2023-01-19T05:13:51.902Z,66.55
2023-01-19T05:14:51.885Z,65.58
2023-01-19T05:15:51.897Z,66.55
2023-01-19T05:16:51.934Z,67.68
2023-01-19T05:17:51.866Z,65.90
2023-01-19T05:18:51.859Z,64.45
2023-01-19T05:19:51.890Z,65.74
2023-01-19T05:20:51.850Z,67.68
2023-01-19T05:21:51.899Z,65.58
2023-01-19T05:22:51.847Z,63.33
2023-01-19T05:23:51.829Z,67.35
2023-01-19T05:24:51.833Z,64.45
2023-01-19T05:25:51.808Z,67.03
2023-01-19T05:26:51.838Z,67.84
2023-01-19T05:27:51.817Z,66.06
2023-01-19T05:28:51.817Z,66.39
2023-01-19T05:29:51.790Z,65.10
2023-01-19T05:30:51.862Z,65.74
2023-01-19T05:31:51.808Z,66.23
2023-01-19T05:32:51.781Z,67.51
2023-01-19T05:33:51.786Z,64.78
2023-01-19T05:34:51.771Z,67.19
2023-01-19T05:35:51.762Z,68.00
2023-01-19T05:36:51.789Z,68.00
2023-01-19T05:37:51.752Z,66.06
2023-01-19T05:38:51.733Z,65.42
2023-01-19T05:39:51.726Z,65.90
2023-01-19T05:40:51.710Z,67.03
2023-01-19T05:41:51.733Z,68.48
2023-01-19T05:42:51.698Z,69.61
2023-01-19T05:43:51.704Z,66.87
2023-01-19T05:44:51.690Z,65.42
2023-01-19T05:45:51.690Z,67.51
2023-01-19T05:46:51.760Z,66.71
2023-01-19T05:47:51.697Z,64.45
2023-01-19T05:48:51.688Z,67.35
2023-01-19T05:49:51.653Z,68.16
2023-01-19T05:50:51.657Z,67.19
2023-01-19T05:51:51.650Z,66.06
2023-01-19T05:52:51.630Z,68.64
2023-01-19T05:53:51.626Z,65.90
2023-01-19T05:54:51.630Z,68.48
2023-01-19T05:55:51.605Z,65.26
2023-01-19T05:56:51.601Z,66.23
2023-01-19T05:57:51.623Z,66.06
2023-01-19T05:58:51.589Z,63.97
2023-01-19T05:59:51.589Z,66.55
2023-01-19T06:00:51.625Z,65.90
2023-01-19T06:01:51.623Z,64.45
2023-01-19T06:02:51.613Z,67.19
2023-01-19T06:03:51.566Z,67.68
2023-01-19T06:04:51.553Z,66.23
2023-01-19T06:05:51.562Z,67.84
2023-01-19T06:06:51.554Z,66.71
2023-01-19T06:07:51.534Z,69.61
2023-01-19T06:08:51.530Z,66.71
2023-01-19T06:09:51.515Z,66.55
2023-01-19T06:10:51.517Z,66.39
2023-01-19T06:11:51.501Z,66.71
2023-01-19T06:12:51.517Z,66.87
2023-01-19T06:13:51.487Z,67.35
2023-01-19T06:14:51.489Z,66.23
2023-01-19T06:15:51.481Z,66.55
2023-01-19T06:16:51.472Z,65.58
2023-01-19T06:17:51.595Z,66.06
2023-01-19T06:18:51.466Z,65.58
2023-01-19T06:19:51.447Z,66.87
2023-01-19T06:20:51.446Z,66.06
2023-01-19T06:21:51.442Z,65.90
2023-01-19T06:22:51.449Z,65.90
2023-01-19T06:23:51.430Z,67.03
2023-01-19T06:24:51.420Z,67.84
2023-01-19T06:25:51.410Z,67.35
2023-01-19T06:26:51.408Z,65.42
2023-01-19T06:27:51.394Z,68.48
2023-01-19T06:28:51.426Z,66.71
2023-01-19T06:29:51.382Z,68.80
2023-01-19T06:30:51.469Z,66.71
2023-01-19T06:31:51.471Z,67.84
2023-01-19T06:32:51.390Z,69.77
2023-01-19T06:33:51.393Z,66.87
2023-01-19T06:34:53.324Z,65.58
2023-01-19T06:35:51.345Z,66.06
2023-01-19T06:36:51.336Z,67.51
2023-01-19T06:37:51.338Z,67.03
2023-01-19T06:38:51.330Z,66.39
2023-01-19T06:39:51.334Z,64.94
2023-01-19T06:40:51.310Z,66.39
2023-01-19T06:41:51.313Z,67.19
2023-01-19T06:42:51.305Z,65.90
2023-01-19T06:43:51.285Z,68.32
2023-01-19T06:44:51.308Z,67.03
2023-01-19T06:45:51.361Z,68.64
2023-01-19T06:46:51.276Z,67.84
2023-01-19T06:47:52.305Z,66.71
2023-01-19T06:48:51.265Z,67.03
2023-01-19T06:49:51.265Z,65.90
2023-01-19T06:50:51.268Z,67.68
2023-01-19T06:51:51.246Z,66.87
2023-01-19T06:52:51.242Z,65.42
2023-01-19T06:53:51.244Z,67.03
2023-01-19T06:54:51.236Z,67.51
2023-01-19T06:55:51.217Z,68.96
2023-01-19T06:56:51.213Z,66.87
2023-01-19T06:57:51.212Z,65.42
2023-01-19T06:58:51.198Z,65.58
2023-01-19T06:59:51.185Z,68.48
2023-01-19T07:00:51.306Z,66.23
2023-01-19T07:01:51.243Z,67.84
2023-01-19T07:02:51.201Z,65.58
2023-01-19T07:03:51.169Z,65.58
2023-01-19T07:04:51.151Z,65.90
2023-01-19T07:05:51.145Z,68.16
2023-01-19T07:06:51.142Z,68.48
2023-01-19T07:07:51.149Z,66.55
2023-01-19T07:08:51.133Z,69.61
2023-01-19T07:09:53.832Z,66.06
2023-01-19T07:11:25.850Z,67.03
2023-01-19T07:11:52.110Z,68.64
2023-01-19T07:12:51.138Z,67.68
2023-01-19T07:13:51.085Z,68.16
2023-01-19T07:14:52.102Z,67.19
2023-01-19T07:15:51.084Z,67.19
2023-01-19T07:16:51.082Z,68.48
2023-01-19T07:17:51.093Z,67.35
2023-01-19T07:18:51.078Z,66.06
2023-01-19T07:19:51.056Z,68.32
2023-01-19T07:20:51.042Z,67.35
2023-01-19T07:21:51.057Z,67.03
2023-01-19T07:22:51.044Z,68.96
2023-01-19T07:23:51.047Z,68.32
2023-01-19T07:24:51.037Z,66.23
2023-01-19T07:25:51.022Z,67.51
2023-01-19T07:26:51.013Z,66.71
2023-01-19T07:27:51.005Z,65.74
2023-01-19T07:28:50.990Z,65.74
2023-01-19T07:29:51.997Z,65.10
2023-01-19T07:30:51.064Z,68.16
2023-01-19T07:31:51.053Z,68.48
2023-01-19T07:32:50.961Z,68.64
2023-01-19T07:33:50.960Z,71.22
2023-01-19T07:34:50.966Z,68.00
2023-01-19T07:35:50.952Z,67.03
2023-01-19T07:36:50.941Z,67.68
2023-01-19T07:37:50.954Z,66.06
2023-01-19T07:38:50.930Z,65.58
2023-01-19T07:39:50.945Z,66.87
2023-01-19T07:40:50.918Z,66.55
2023-01-19T07:41:50.918Z,64.61
2023-01-19T07:42:50.910Z,66.71
2023-01-19T07:43:50.888Z,64.78
2023-01-19T07:44:50.915Z,66.06
2023-01-19T07:45:51.000Z,64.61
2023-01-19T07:46:50.887Z,68.00
2023-01-19T07:47:50.869Z,67.03
2023-01-19T07:48:50.874Z,66.87
2023-01-19T07:49:50.864Z,68.96
2023-01-19T07:50:50.865Z,66.39
2023-01-19T07:51:50.837Z,69.61
2023-01-19T07:52:50.851Z,73.96
2023-01-19T07:53:50.901Z,68.80
2023-01-19T07:54:50.844Z,65.58
2023-01-19T07:55:50.830Z,67.51
2023-01-19T07:56:50.821Z,67.68
2023-01-19T07:57:50.807Z,68.48
2023-01-19T07:58:50.807Z,67.35
2023-01-19T07:59:50.797Z,65.42
2023-01-19T08:00:50.840Z,65.42
2023-01-19T08:01:50.970Z,65.74
2023-01-19T08:02:50.773Z,66.39
2023-01-19T08:03:50.816Z,66.55
2023-01-19T08:04:50.832Z,67.51
2023-01-19T08:05:50.768Z,64.61
2023-01-19T08:06:50.758Z,69.45
2023-01-19T08:07:53.245Z,65.74
2023-01-19T08:08:50.735Z,65.74
2023-01-19T08:09:50.729Z,66.71
2023-01-19T08:10:50.768Z,66.71
2023-01-19T08:11:50.719Z,68.64
2023-01-19T08:12:50.733Z,65.90
2023-01-19T08:13:50.716Z,64.78
2023-01-19T08:14:50.706Z,67.03
2023-01-19T08:15:50.803Z,71.38
2023-01-19T08:16:50.677Z,67.19
2023-01-19T08:17:50.693Z,67.35
2023-01-19T08:18:50.677Z,66.23
2023-01-19T08:19:50.688Z,66.55
2023-01-19T08:20:50.669Z,65.42
2023-01-19T08:21:50.656Z,68.16
2023-01-19T08:22:50.666Z,65.42
2023-01-19T08:23:50.696Z,67.03
2023-01-19T08:24:50.658Z,68.48
2023-01-19T08:25:50.630Z,68.96
2023-01-19T08:26:50.620Z,67.03
2023-01-19T08:27:50.617Z,71.70
2023-01-19T08:28:50.625Z,66.71
2023-01-19T08:29:50.598Z,64.13
2023-01-19T08:30:50.703Z,65.58
2023-01-19T08:31:50.649Z,69.13
2023-01-19T08:32:50.580Z,65.26
2023-01-19T08:33:50.595Z,65.74
2023-01-19T08:34:50.581Z,67.03
2023-01-19T08:35:50.556Z,67.19
2023-01-19T08:36:50.562Z,70.58
2023-01-19T08:37:50.538Z,69.61
2023-01-19T08:38:51.556Z,65.42
2023-01-19T08:39:50.528Z,68.16
2023-01-19T08:40:50.519Z,70.58
2023-01-19T08:41:50.524Z,68.64
2023-01-19T08:42:50.532Z,65.42
2023-01-19T08:43:50.512Z,66.23
2023-01-19T08:44:58.116Z,67.51
2023-01-19T08:45:52.500Z,65.42
2023-01-19T08:46:50.503Z,74.28
2023-01-19T08:47:50.512Z,68.16
2023-01-19T08:48:50.651Z,67.51
2023-01-19T08:49:50.485Z,66.39
2023-01-19T08:50:50.481Z,68.32
2023-01-19T08:51:50.474Z,67.84
2023-01-19T08:52:50.455Z,65.10
2023-01-19T08:53:50.486Z,66.23
2023-01-19T08:54:50.458Z,65.90
2023-01-19T08:55:50.461Z,66.23
2023-01-19T08:56:50.433Z,64.78
2023-01-19T08:57:50.426Z,66.39
2023-01-19T08:59:03.511Z,64.78
2023-01-19T08:59:52.416Z,67.03
2023-01-19T09:00:50.475Z,65.42
2023-01-19T09:01:50.550Z,66.39
2023-01-19T09:02:50.491Z,66.87
2023-01-19T09:03:50.381Z,64.61
2023-01-19T09:04:50.395Z,68.48
2023-01-19T09:05:50.411Z,64.94
2023-01-19T09:06:50.360Z,66.55
2023-01-19T09:07:50.364Z,65.74
2023-01-19T09:08:51.365Z,67.51
2023-01-19T09:09:50.348Z,64.29
2023-01-19T09:10:50.345Z,65.42
2023-01-19T09:11:50.323Z,68.00
2023-01-19T09:12:50.333Z,63.16
2023-01-19T09:13:50.336Z,70.09
2023-01-19T09:14:50.325Z,63.97
2023-01-19T09:15:50.338Z,63.65
2023-01-19T09:16:50.313Z,64.45
2023-01-19T09:17:50.296Z,65.90
2023-01-19T09:18:50.283Z,65.26
2023-01-19T09:19:50.283Z,63.65
2023-01-19T09:20:50.282Z,67.68
2023-01-19T09:21:50.288Z,64.61
2023-01-19T09:22:50.265Z,65.42
2023-01-19T09:23:50.255Z,64.29
2023-01-19T09:24:50.239Z,66.71
2023-01-19T09:25:50.243Z,65.26
2023-01-19T09:26:50.248Z,65.26
2023-01-19T09:27:50.265Z,68.16
2023-01-19T09:28:50.243Z,65.26
2023-01-19T09:29:50.227Z,65.42
2023-01-19T09:30:50.343Z,65.42
2023-01-19T09:31:50.255Z,64.94
2023-01-19T09:32:50.208Z,66.55
2023-01-19T09:33:50.208Z,64.94
2023-01-19T09:34:50.192Z,64.61
2023-01-19T09:35:50.202Z,65.58
2023-01-19T09:36:50.183Z,65.42
2023-01-19T09:37:50.183Z,65.58
2023-01-19T09:38:50.178Z,66.23
2023-01-19T09:39:50.276Z,63.16
2023-01-19T09:40:50.160Z,65.26
2023-01-19T09:41:50.179Z,63.49
2023-01-19T09:42:50.152Z,64.29
2023-01-19T09:43:50.137Z,65.58
2023-01-19T09:44:50.132Z,65.26
2023-01-19T09:45:50.163Z,66.23
2023-01-19T09:46:50.186Z,61.55
2023-01-19T09:47:50.117Z,64.45
2023-01-19T09:48:50.294Z,68.48
2023-01-19T09:49:50.093Z,64.13
2023-01-19T09:50:50.088Z,65.74
2023-01-19T09:51:50.087Z,64.13
2023-01-19T09:52:50.067Z,67.03
2023-01-19T09:53:50.079Z,66.23
2023-01-19T09:54:50.084Z,64.61
2023-01-19T09:55:50.063Z,64.94
2023-01-19T09:56:52.652Z,65.74
2023-01-19T09:57:51.042Z,65.26
2023-01-19T09:58:50.056Z,66.39
2023-01-19T09:59:50.041Z,66.87
2023-01-19T10:00:50.142Z,64.94
2023-01-19T10:01:50.075Z,66.06
2023-01-19T10:02:50.075Z,64.45
2023-01-19T10:03:51.021Z,68.00
2023-01-19T10:04:50.020Z,66.39
2023-01-19T10:05:50.021Z,65.26
2023-01-19T10:06:49.990Z,66.39
2023-01-19T10:07:49.988Z,70.09
2023-01-19T10:08:49.991Z,65.74
2023-01-19T10:09:49.984Z,69.13
2023-01-19T10:10:49.977Z,65.58
2023-01-19T10:11:53.559Z,66.87
2023-01-19T10:12:51.015Z,66.55
2023-01-19T10:13:49.980Z,67.51
2023-01-19T10:14:49.933Z,66.71
2023-01-19T10:15:49.948Z,65.90
2023-01-19T10:16:49.932Z,67.19
2023-01-19T10:17:49.931Z,65.26
2023-01-19T10:18:49.923Z,66.55
2023-01-19T10:19:49.907Z,63.97
2023-01-19T10:20:49.921Z,66.71
2023-01-19T10:21:49.905Z,65.74
2023-01-19T10:22:49.896Z,66.55
2023-01-19T10:23:49.897Z,66.06
2023-01-19T10:24:49.891Z,65.42
2023-01-19T10:25:49.924Z,64.61
2023-01-19T10:26:49.889Z,67.51
2023-01-19T10:27:49.881Z,65.74
2023-01-19T10:28:49.859Z,65.10
2023-01-19T10:29:49.888Z,66.71
2023-01-19T10:30:49.848Z,69.13
2023-01-19T10:31:49.887Z,64.45
2023-01-19T10:32:49.826Z,65.42
2023-01-19T10:33:49.821Z,64.61
2023-01-19T10:34:49.827Z,64.78
2023-01-19T10:35:49.812Z,63.00
2023-01-19T10:36:49.881Z,64.78
2023-01-19T10:37:49.793Z,67.51
2023-01-19T10:38:49.816Z,69.13
2023-01-19T10:39:49.816Z,67.68
2023-01-19T10:40:49.785Z,65.74
2023-01-19T10:41:49.788Z,65.42
2023-01-19T10:42:49.884Z,66.55
2023-01-19T10:43:49.770Z,65.74
2023-01-19T10:44:49.826Z,66.06
2023-01-19T10:45:49.775Z,68.00
2023-01-19T10:46:49.745Z,65.58
2023-01-19T10:47:49.765Z,69.29
2023-01-19T10:48:49.745Z,64.94
2023-01-19T10:49:49.717Z,62.52
2023-01-19T10:50:49.715Z,65.74
2023-01-19T10:51:49.770Z,63.33
2023-01-19T10:52:49.717Z,68.16
2023-01-19T10:53:49.694Z,65.26
2023-01-19T10:54:49.742Z,64.78
2023-01-19T10:55:49.673Z,65.74
2023-01-19T10:56:50.700Z,67.19
2023-01-19T10:57:49.672Z,65.90
2023-01-19T10:58:49.691Z,64.78
2023-01-19T10:59:49.653Z,65.90
2023-01-19T11:00:49.731Z,66.87
2023-01-19T11:01:49.795Z,63.97
2023-01-19T11:02:49.717Z,67.19
2023-01-19T11:03:49.713Z,67.68
2023-01-19T11:04:50.191Z,66.71
2023-01-19T11:05:50.706Z,64.78
2023-01-19T11:06:49.625Z,66.39
2023-01-19T11:07:49.616Z,66.87
2023-01-19T11:08:49.623Z,64.94
2023-01-19T11:09:49.648Z,64.45
2023-01-19T11:10:49.582Z,65.10
2023-01-19T11:11:49.579Z,64.45
2023-01-19T11:12:49.579Z,65.42
2023-01-19T11:13:49.575Z,66.55
2023-01-19T11:14:49.584Z,66.39
2023-01-19T11:15:49.571Z,66.71
2023-01-19T11:16:49.593Z,65.90
2023-01-19T11:17:49.542Z,66.23
2023-01-19T11:18:49.544Z,64.29
2023-01-19T11:19:49.541Z,62.68
2023-01-19T11:20:49.533Z,64.29
2023-01-19T11:21:49.520Z,67.51
2023-01-19T11:22:49.507Z,64.78
2023-01-19T11:23:49.519Z,64.61
2023-01-19T11:24:49.507Z,67.51
2023-01-19T11:25:49.520Z,67.35
2023-01-19T11:26:49.511Z,69.29
2023-01-19T11:27:49.490Z,64.94
2023-01-19T11:28:49.481Z,66.06
2023-01-19T11:29:49.466Z,67.35
2023-01-19T11:30:49.521Z,66.71
2023-01-19T11:31:49.610Z,66.71
2023-01-19T11:32:49.472Z,64.94
2023-01-19T11:33:50.791Z,66.23
2023-01-19T11:34:50.452Z,63.49
2023-01-19T11:35:49.444Z,65.26
2023-01-19T11:36:49.434Z,66.39
2023-01-19T11:37:49.429Z,68.80
2023-01-19T11:38:49.404Z,64.78
2023-01-19T11:39:49.417Z,67.51
2023-01-19T11:40:49.412Z,74.12
2023-01-19T11:41:49.391Z,65.90
2023-01-19T11:42:49.387Z,68.00
2023-01-19T11:43:49.687Z,66.23
2023-01-19T11:44:49.386Z,67.68
2023-01-19T11:45:49.408Z,64.29
2023-01-19T11:46:50.189Z,68.32
2023-01-19T11:47:50.359Z,65.42
2023-01-19T11:48:49.354Z,63.81
2023-01-19T11:49:49.347Z,68.16
2023-01-19T11:50:49.363Z,66.23
2023-01-19T11:51:49.351Z,66.39
2023-01-19T11:52:49.336Z,68.00
2023-01-19T11:53:49.322Z,65.42
2023-01-19T11:54:49.334Z,65.26
2023-01-19T11:55:49.312Z,68.80
2023-01-19T11:56:49.330Z,65.10
2023-01-19T11:57:49.300Z,66.39
2023-01-19T11:58:49.294Z,65.90
2023-01-19T11:59:51.944Z,66.87
2023-01-19T12:00:49.290Z,63.97
2023-01-19T12:01:49.430Z,65.10
2023-01-19T12:02:49.281Z,66.55
2023-01-19T12:03:49.266Z,69.29
2023-01-19T12:04:49.254Z,66.23
2023-01-19T12:05:49.244Z,63.33
2023-01-19T12:06:49.225Z,65.26
2023-01-19T12:07:49.333Z,68.00
2023-01-19T12:08:49.235Z,70.09
2023-01-19T12:09:49.222Z,68.80
2023-01-19T12:10:49.218Z,65.74
2023-01-19T12:11:49.215Z,65.26
2023-01-19T12:12:49.221Z,65.26
2023-01-19T12:13:49.242Z,66.39
2023-01-19T12:14:49.182Z,67.03
2023-01-19T12:15:49.178Z,66.06
2023-01-19T12:16:49.231Z,68.80
2023-01-19T12:17:49.204Z,67.35
2023-01-19T12:18:49.155Z,72.35
2023-01-19T12:19:49.154Z,70.25
2023-01-19T12:20:49.152Z,68.96
2023-01-19T12:21:49.135Z,66.23
2023-01-19T12:22:49.139Z,67.84
2023-01-19T12:23:49.145Z,66.55
2023-01-19T12:24:49.139Z,64.45
2023-01-19T12:25:49.111Z,67.35
2023-01-19T12:26:49.106Z,69.13
2023-01-19T12:27:49.134Z,67.35
2023-01-19T12:28:49.095Z,70.09
2023-01-19T12:29:49.098Z,67.03
2023-01-19T12:30:49.158Z,69.13
2023-01-19T12:31:51.709Z,69.61
2023-01-19T12:32:50.083Z,78.31
2023-01-19T12:33:49.089Z,65.58
2023-01-19T12:34:49.074Z,73.80
2023-01-19T12:35:49.064Z,66.23
2023-01-19T12:36:49.048Z,64.29
2023-01-19T12:37:49.037Z,65.26
2023-01-19T12:38:49.050Z,68.00
2023-01-19T12:39:49.030Z,66.06
2023-01-19T12:40:49.015Z,64.94
2023-01-19T12:41:49.024Z,62.36
2023-01-19T12:42:49.067Z,70.58
2023-01-19T12:43:48.996Z,67.51
2023-01-19T12:44:48.990Z,68.80
2023-01-19T12:45:49.041Z,63.81
2023-01-19T12:46:48.980Z,65.90
2023-01-19T12:47:53.070Z,62.20
2023-01-19T12:48:49.976Z,64.78
2023-01-19T12:49:49.034Z,63.65
2023-01-19T12:50:48.987Z,62.20
2023-01-19T12:51:48.958Z,64.29
2023-01-19T12:52:48.938Z,64.29